sensor_id;sensor_type;location;lat;lon;timestamp;pressure;altitude;pressure_sealevel;temperature;humidity
79703;BME280;69172;52.352;5.006;2023-07-02T00:00:07;100702.22;;;16.86;59.56
79703;BME280;69172;52.352;5.006;2023-07-02T00:02:33;100697.00;;;16.85;59.62
79703;BME280;69172;52.352;5.006;2023-07-02T00:04:59;100697.84;;;16.84;58.79
79703;BME280;69172;52.352;5.006;2023-07-02T00:07:30;100678.56;;;16.76;57.56
79703;BME280;69172;52.352;5.006;2023-07-02T00:09:56;100690.06;;;16.85;58.28
79703;BME280;69172;52.352;5.006;2023-07-02T00:12:21;100723.91;;;16.88;57.16
79703;BME280;69172;52.352;5.006;2023-07-02T00:14:47;100685.75;;;16.86;57.07
79703;BME280;69172;52.352;5.006;2023-07-02T00:17:13;100694.44;;;16.86;56.49
79703;BME280;69172;52.352;5.006;2023-07-02T00:19:39;100698.75;;;16.86;57.03
79703;BME280;69172;52.352;5.006;2023-07-02T00:22:09;100694.47;;;16.88;56.57
79703;BME280;69172;52.352;5.006;2023-07-02T00:24:36;100694.41;;;16.85;57.22
79703;BME280;69172;52.352;5.006;2023-07-02T00:27:02;100696.13;;;16.84;56.08
79703;BME280;69172;52.352;5.006;2023-07-02T00:29:27;100692.53;;;16.81;56.82
79703;BME280;69172;52.352;5.006;2023-07-02T00:31:53;100696.06;;;16.83;55.92
79703;BME280;69172;52.352;5.006;2023-07-02T00:34:18;100688.03;;;16.74;57.14
79703;BME280;69172;52.352;5.006;2023-07-02T00:36:44;100691.47;;;16.74;57.24
79703;BME280;69172;52.352;5.006;2023-07-02T00:39:09;100693.88;;;16.66;57.59
79703;BME280;69172;52.352;5.006;2023-07-02T00:41:37;100688.66;;;16.66;56.81
79703;BME280;69172;52.352;5.006;2023-07-02T00:44:02;100706.75;;;16.63;56.81
79703;BME280;69172;52.352;5.006;2023-07-02T00:46:27;100700.53;;;16.57;57.64
79703;BME280;69172;52.352;5.006;2023-07-02T00:48:54;100695.94;;;16.50;58.02
79703;BME280;69172;52.352;5.006;2023-07-02T00:51:24;100696.69;;;16.46;58.38
79703;BME280;69172;52.352;5.006;2023-07-02T00:53:52;100698.41;;;16.45;58.51
79703;BME280;69172;52.352;5.006;2023-07-02T00:56:18;100701.75;;;16.41;58.65
79703;BME280;69172;52.352;5.006;2023-07-02T00:58:48;100702.50;;;16.37;59.06
79703;BME280;69172;52.352;5.006;2023-07-02T01:01:22;100698.06;;;16.33;59.93
79703;BME280;69172;52.352;5.006;2023-07-02T01:03:58;100695.31;;;16.29;59.91
79703;BME280;69172;52.352;5.006;2023-07-02T01:06:32;100705.56;;;16.24;60.73
79703;BME280;69172;52.352;5.006;2023-07-02T01:09:03;100699.28;;;16.18;60.92
79703;BME280;69172;52.352;5.006;2023-07-02T01:11:49;100715.72;;;16.17;60.89
79703;BME280;69172;52.352;5.006;2023-07-02T01:14:26;100718.22;;;16.15;60.99
79703;BME280;69172;52.352;5.006;2023-07-02T01:16:53;100710.41;;;16.14;61.27
79703;BME280;69172;52.352;5.006;2023-07-02T01:19:47;100705.03;;;16.07;62.13
79703;BME280;69172;52.352;5.006;2023-07-02T01:22:18;100709.19;;;16.02;62.60
79703;BME280;69172;52.352;5.006;2023-07-02T01:24:44;100709.88;;;15.97;62.62
79703;BME280;69172;52.352;5.006;2023-07-02T01:27:12;100713.28;;;15.96;62.80
79703;BME280;69172;52.352;5.006;2023-07-02T01:29:37;100710.56;;;15.91;62.94
79703;BME280;69172;52.352;5.006;2023-07-02T01:32:03;100717.34;;;15.88;63.22
79703;BME280;69172;52.352;5.006;2023-07-02T01:34:29;100712.97;;;15.85;63.40
79703;BME280;69172;52.352;5.006;2023-07-02T01:36:54;100723.28;;;15.84;63.09
79703;BME280;69172;52.352;5.006;2023-07-02T01:39:20;100715.50;;;15.84;62.86
79703;BME280;69172;52.352;5.006;2023-07-02T01:41:52;100713.59;;;15.78;63.35
79703;BME280;69172;52.352;5.006;2023-07-02T01:44:19;100703.94;;;15.74;63.28
79703;BME280;69172;52.352;5.006;2023-07-02T01:46:46;100704.00;;;15.76;62.88
79703;BME280;69172;52.352;5.006;2023-07-02T01:49:15;100706.41;;;15.70;63.16
79703;BME280;69172;52.352;5.006;2023-07-02T01:51:44;100711.59;;;15.70;62.86
79703;BME280;69172;52.352;5.006;2023-07-02T01:54:10;100716.63;;;15.65;63.17
79703;BME280;69172;52.352;5.006;2023-07-02T01:56:35;100715.78;;;15.66;62.67
79703;BME280;69172;52.352;5.006;2023-07-02T01:59:01;100719.13;;;15.62;63.16
79703;BME280;69172;52.352;5.006;2023-07-02T02:01:26;100722.38;;;15.57;63.29
79703;BME280;69172;52.352;5.006;2023-07-02T02:03:52;100717.91;;;15.53;63.13
79703;BME280;69172;52.352;5.006;2023-07-02T02:06:17;100722.94;;;15.48;63.46
79703;BME280;69172;52.352;5.006;2023-07-02T02:08:43;100720.50;;;15.53;62.78
79703;BME280;69172;52.352;5.006;2023-07-02T02:11:08;100721.25;;;15.48;62.91
79703;BME280;69172;52.352;5.006;2023-07-02T02:13:34;100716.16;;;15.52;63.15
79703;BME280;69172;52.352;5.006;2023-07-02T02:15:59;100715.31;;;15.53;62.85
79703;BME280;69172;52.352;5.006;2023-07-02T02:18:24;100720.47;;;15.51;62.69
79703;BME280;69172;52.352;5.006;2023-07-02T02:20:50;100715.19;;;15.48;63.28
79703;BME280;69172;52.352;5.006;2023-07-02T02:23:15;100716.84;;;15.46;63.53
79703;BME280;69172;52.352;5.006;2023-07-02T02:25:40;100715.09;;;15.46;63.62
79703;BME280;69172;52.352;5.006;2023-07-02T02:28:06;100722.78;;;15.43;63.63
79703;BME280;69172;52.352;5.006;2023-07-02T02:30:31;100720.09;;;15.42;63.61
79703;BME280;69172;52.352;5.006;2023-07-02T02:32:56;100725.97;;;15.36;64.20
79703;BME280;69172;52.352;5.006;2023-07-02T02:35:22;100732.69;;;15.31;64.66
79703;BME280;69172;52.352;5.006;2023-07-02T02:37:47;100732.69;;;15.31;64.21
79703;BME280;69172;52.352;5.006;2023-07-02T02:40:13;100734.25;;;15.26;64.54
79703;BME280;69172;52.352;5.006;2023-07-02T02:42:39;100734.16;;;15.23;64.88
79703;BME280;69172;52.352;5.006;2023-07-02T02:45:05;100743.59;;;15.21;64.96
79703;BME280;69172;52.352;5.006;2023-07-02T02:47:36;100744.41;;;15.20;65.21
79703;BME280;69172;52.352;5.006;2023-07-02T02:50:02;100745.41;;;15.24;65.09
79703;BME280;69172;52.352;5.006;2023-07-02T02:52:27;100747.13;;;15.25;64.77
79703;BME280;69172;52.352;5.006;2023-07-02T02:54:54;100746.28;;;15.24;64.95
79703;BME280;69172;52.352;5.006;2023-07-02T02:57:19;100738.28;;;15.18;64.94
79703;BME280;69172;52.352;5.006;2023-07-02T02:59:45;100746.16;;;15.21;65.22
79703;BME280;69172;52.352;5.006;2023-07-02T03:02:13;100748.56;;;15.17;65.47
79703;BME280;69172;52.352;5.006;2023-07-02T03:04:38;100740.66;;;15.12;65.40
79703;BME280;69172;52.352;5.006;2023-07-02T03:07:05;100753.66;;;15.14;65.32
79703;BME280;69172;52.352;5.006;2023-07-02T03:09:32;100750.25;;;15.15;65.48
79703;BME280;69172;52.352;5.006;2023-07-02T03:11:57;100745.16;;;15.18;65.10
79703;BME280;69172;52.352;5.006;2023-07-02T03:14:22;100754.66;;;15.17;65.07
79703;BME280;69172;52.352;5.006;2023-07-02T03:16:48;100749.25;;;15.11;65.32
79703;BME280;69172;52.352;5.006;2023-07-02T03:19:15;100753.50;;;15.09;65.72
79703;BME280;69172;52.352;5.006;2023-07-02T03:21:44;100758.75;;;15.11;65.21
79703;BME280;69172;52.352;5.006;2023-07-02T03:24:10;100758.63;;;15.08;65.61
79703;BME280;69172;52.352;5.006;2023-07-02T03:26:40;100769.00;;;15.08;65.15
79703;BME280;69172;52.352;5.006;2023-07-02T03:29:21;100763.84;;;15.09;64.62
79703;BME280;69172;52.352;5.006;2023-07-02T03:31:50;100761.25;;;15.09;64.48
79703;BME280;69172;52.352;5.006;2023-07-02T03:34:16;100761.16;;;15.06;64.38
79703;BME280;69172;52.352;5.006;2023-07-02T03:36:43;100757.63;;;15.04;64.81
79703;BME280;69172;52.352;5.006;2023-07-02T03:39:09;100767.19;;;15.05;64.21
79703;BME280;69172;52.352;5.006;2023-07-02T03:41:41;100760.19;;;15.03;64.83
79703;BME280;69172;52.352;5.006;2023-07-02T03:44:06;100767.19;;;15.05;64.55
79703;BME280;69172;52.352;5.006;2023-07-02T03:46:38;100767.06;;;15.02;64.99
79703;BME280;69172;52.352;5.006;2023-07-02T03:49:03;100766.22;;;15.03;64.60
79703;BME280;69172;52.352;5.006;2023-07-02T03:51:30;100771.50;;;15.06;65.01
79703;BME280;69172;52.352;5.006;2023-07-02T03:53:58;100764.50;;;15.04;65.06
79703;BME280;69172;52.352;5.006;2023-07-02T03:56:24;100767.75;;;14.98;65.81
79703;BME280;69172;52.352;5.006;2023-07-02T03:58:57;100778.97;;;14.97;65.92
79703;BME280;69172;52.352;5.006;2023-07-02T04:01:24;100782.63;;;15.04;65.92
79703;BME280;69172;52.352;5.006;2023-07-02T04:03:51;100779.13;;;15.02;66.24
79703;BME280;69172;52.352;5.006;2023-07-02T04:06:17;100785.22;;;15.04;66.60
79703;BME280;69172;52.352;5.006;2023-07-02T04:08:43;100783.38;;;15.00;66.64
79703;BME280;69172;52.352;5.006;2023-07-02T04:11:10;100786.09;;;15.03;67.05
79703;BME280;69172;52.352;5.006;2023-07-02T04:13:35;100790.41;;;15.04;66.99
79703;BME280;69172;52.352;5.006;2023-07-02T04:16:01;100787.00;;;15.05;67.15
79703;BME280;69172;52.352;5.006;2023-07-02T04:18:26;100791.41;;;15.07;66.82
79703;BME280;69172;52.352;5.006;2023-07-02T04:20:52;100789.59;;;15.05;67.10
79703;BME280;69172;52.352;5.006;2023-07-02T04:23:17;100797.38;;;15.05;67.16
79703;BME280;69172;52.352;5.006;2023-07-02T04:25:43;100799.88;;;15.03;67.51
79703;BME280;69172;52.352;5.006;2023-07-02T04:28:09;100797.25;;;15.02;68.05
79703;BME280;69172;52.352;5.006;2023-07-02T04:30:35;100801.78;;;15.07;67.44
79703;BME280;69172;52.352;5.006;2023-07-02T04:33:00;100801.69;;;15.06;67.25
79703;BME280;69172;52.352;5.006;2023-07-02T04:35:26;100799.19;;;15.07;67.72
79703;BME280;69172;52.352;5.006;2023-07-02T04:37:51;100806.22;;;15.11;67.18
79703;BME280;69172;52.352;5.006;2023-07-02T04:40:17;100814.00;;;15.11;67.47
79703;BME280;69172;52.352;5.006;2023-07-02T04:42:42;100811.47;;;15.13;67.70
79703;BME280;69172;52.352;5.006;2023-07-02T04:45:12;100807.22;;;15.15;67.47
79703;BME280;69172;52.352;5.006;2023-07-02T04:47:43;100813.41;;;15.18;67.14
79703;BME280;69172;52.352;5.006;2023-07-02T04:50:09;100818.53;;;15.17;66.99
79703;BME280;69172;52.352;5.006;2023-07-02T04:52:34;100813.22;;;15.14;67.20
79703;BME280;69172;52.352;5.006;2023-07-02T04:55:00;100821.19;;;15.18;67.52
79703;BME280;69172;52.352;5.006;2023-07-02T04:57:26;100821.22;;;15.20;67.37
79703;BME280;69172;52.352;5.006;2023-07-02T04:59:53;100818.72;;;15.21;67.31
79703;BME280;69172;52.352;5.006;2023-07-02T05:02:19;100818.72;;;15.21;67.33
79703;BME280;69172;52.352;5.006;2023-07-02T05:04:45;100819.59;;;15.22;67.57
79703;BME280;69172;52.352;5.006;2023-07-02T05:07:10;100822.22;;;15.23;67.73
79703;BME280;69172;52.352;5.006;2023-07-02T05:09:36;100814.63;;;15.28;67.40
79703;BME280;69172;52.352;5.006;2023-07-02T05:12:01;100824.31;;;15.33;66.80
79703;BME280;69172;52.352;5.006;2023-07-02T05:14:26;100826.88;;;15.32;66.61
79703;BME280;69172;52.352;5.006;2023-07-02T05:16:52;100818.25;;;15.33;66.66
79703;BME280;69172;52.352;5.006;2023-07-02T05:19:17;100835.69;;;15.37;66.84
79703;BME280;69172;52.352;5.006;2023-07-02T05:21:43;100838.31;;;15.38;66.62
79703;BME280;69172;52.352;5.006;2023-07-02T05:24:08;100830.50;;;15.37;66.66
79703;BME280;69172;52.352;5.006;2023-07-02T05:26:34;100841.75;;;15.37;66.54
79703;BME280;69172;52.352;5.006;2023-07-02T05:29:00;100836.69;;;15.40;66.59
79703;BME280;69172;52.352;5.006;2023-07-02T05:31:26;100834.09;;;15.40;66.93
79703;BME280;69172;52.352;5.006;2023-07-02T05:33:51;100836.69;;;15.40;66.06
79703;BME280;69172;52.352;5.006;2023-07-02T05:36:16;100847.19;;;15.43;65.87
79703;BME280;69172;52.352;5.006;2023-07-02T05:38:42;100851.63;;;15.46;65.82
79703;BME280;69172;52.352;5.006;2023-07-02T05:41:07;100852.47;;;15.46;65.84
79703;BME280;69172;52.352;5.006;2023-07-02T05:43:33;100851.72;;;15.49;66.24
79703;BME280;69172;52.352;5.006;2023-07-02T05:45:59;100852.81;;;15.56;66.32
79703;BME280;69172;52.352;5.006;2023-07-02T05:48:26;100859.00;;;15.59;66.25
79703;BME280;69172;52.352;5.006;2023-07-02T05:50:51;100858.13;;;15.59;66.38
79703;BME280;69172;52.352;5.006;2023-07-02T05:53:17;100862.41;;;15.58;66.29
79703;BME280;69172;52.352;5.006;2023-07-02T05:55:42;100877.91;;;15.57;65.64
79703;BME280;69172;52.352;5.006;2023-07-02T05:58:08;100860.75;;;15.60;65.81
79703;BME280;69172;52.352;5.006;2023-07-02T06:00:34;100854.75;;;15.61;65.41
79703;BME280;69172;52.352;5.006;2023-07-02T06:02:59;100872.88;;;15.61;65.33
79703;BME280;69172;52.352;5.006;2023-07-02T06:05:24;100868.72;;;15.65;64.26
79703;BME280;69172;52.352;5.006;2023-07-02T06:07:50;100852.16;;;15.61;64.47
79703;BME280;69172;52.352;5.006;2023-07-02T06:10:15;100886.78;;;15.63;65.47
79703;BME280;69172;52.352;5.006;2023-07-02T06:12:42;100888.00;;;15.73;65.65
79703;BME280;69172;52.352;5.006;2023-07-02T06:15:09;100889.81;;;15.75;64.55
79703;BME280;69172;52.352;5.006;2023-07-02T06:17:34;100874.97;;;15.71;64.40
79703;BME280;69172;52.352;5.006;2023-07-02T06:20:02;100881.78;;;15.68;64.17
79703;BME280;69172;52.352;5.006;2023-07-02T06:22:30;100877.38;;;15.65;64.89
79703;BME280;69172;52.352;5.006;2023-07-02T06:24:55;100893.13;;;15.71;64.42
79703;BME280;69172;52.352;5.006;2023-07-02T06:27:20;100882.94;;;15.76;64.58
79703;BME280;69172;52.352;5.006;2023-07-02T06:29:46;100883.88;;;15.78;64.74
79703;BME280;69172;52.352;5.006;2023-07-02T06:32:11;100893.50;;;15.82;64.47
79703;BME280;69172;52.352;5.006;2023-07-02T06:34:37;100894.75;;;15.93;64.08
79703;BME280;69172;52.352;5.006;2023-07-02T06:37:02;100888.31;;;16.05;64.19
79703;BME280;69172;52.352;5.006;2023-07-02T06:39:28;100891.72;;;16.04;63.69
79703;BME280;69172;52.352;5.006;2023-07-02T06:41:53;100895.97;;;16.02;63.03
79703;BME280;69172;52.352;5.006;2023-07-02T06:44:18;100898.63;;;16.04;63.31
79703;BME280;69172;52.352;5.006;2023-07-02T06:46:46;100889.88;;;16.00;63.46
79703;BME280;69172;52.352;5.006;2023-07-02T06:49:11;100909.72;;;16.00;63.25
79703;BME280;69172;52.352;5.006;2023-07-02T06:51:36;100917.00;;;16.10;61.94
79703;BME280;69172;52.352;5.006;2023-07-02T06:54:02;100916.84;;;16.05;61.76
79703;BME280;69172;52.352;5.006;2023-07-02T06:56:27;100920.16;;;16.01;62.55
79703;BME280;69172;52.352;5.006;2023-07-02T06:58:53;100930.38;;;15.97;62.07
79703;BME280;69172;52.352;5.006;2023-07-02T07:01:19;100934.00;;;16.02;62.02
79703;BME280;69172;52.352;5.006;2023-07-02T07:03:44;100937.75;;;16.10;62.44
79703;BME280;69172;52.352;5.006;2023-07-02T07:06:11;100926.13;;;16.24;61.53
79703;BME280;69172;52.352;5.006;2023-07-02T07:08:37;100921.34;;;16.36;61.28
79703;BME280;69172;52.352;5.006;2023-07-02T07:11:04;100929.06;;;16.33;61.20
79703;BME280;69172;52.352;5.006;2023-07-02T07:13:29;100943.78;;;16.34;61.22
79703;BME280;69172;52.352;5.006;2023-07-02T07:15:54;100951.25;;;16.25;60.98
79703;BME280;69172;52.352;5.006;2023-07-02T07:18:20;100943.31;;;16.21;59.90
79703;BME280;69172;52.352;5.006;2023-07-02T07:20:45;100940.16;;;16.29;60.56
79703;BME280;69172;52.352;5.006;2023-07-02T07:23:11;100949.13;;;16.39;60.03
79703;BME280;69172;52.352;5.006;2023-07-02T07:25:36;100950.31;;;16.48;60.15
79703;BME280;69172;52.352;5.006;2023-07-02T07:28:01;100947.63;;;16.45;59.67
79703;BME280;69172;52.352;5.006;2023-07-02T07:30:27;100944.81;;;16.39;60.83
79703;BME280;69172;52.352;5.006;2023-07-02T07:32:53;100946.59;;;16.40;60.66
79703;BME280;69172;52.352;5.006;2023-07-02T07:35:20;100948.38;;;16.41;60.90
79703;BME280;69172;52.352;5.006;2023-07-02T07:37:46;100950.13;;;16.42;60.91
79703;BME280;69172;52.352;5.006;2023-07-02T07:40:12;100956.59;;;16.53;60.35
79703;BME280;69172;52.352;5.006;2023-07-02T07:42:38;100960.09;;;16.55;59.60
79703;BME280;69172;52.352;5.006;2023-07-02T07:45:03;100961.78;;;16.53;60.31
79703;BME280;69172;52.352;5.006;2023-07-02T07:47:29;100969.38;;;16.49;57.96
79703;BME280;69172;52.352;5.006;2023-07-02T07:49:54;100970.09;;;16.45;59.63
79703;BME280;69172;52.352;5.006;2023-07-02T07:52:20;100958.66;;;16.38;59.48
79703;BME280;69172;52.352;5.006;2023-07-02T07:54:46;100964.44;;;16.55;59.36
79703;BME280;69172;52.352;5.006;2023-07-02T07:57:11;100968.50;;;16.48;59.66
79703;BME280;69172;52.352;5.006;2023-07-02T07:59:37;100975.84;;;16.60;59.72
79703;BME280;69172;52.352;5.006;2023-07-02T08:02:02;100960.53;;;16.67;57.34
79703;BME280;69172;52.352;5.006;2023-07-02T08:04:28;100971.28;;;16.80;57.00
79703;BME280;69172;52.352;5.006;2023-07-02T08:06:53;100963.00;;;16.90;57.35
79703;BME280;69172;52.352;5.006;2023-07-02T08:09:20;100952.19;;;17.04;58.30
79703;BME280;69172;52.352;5.006;2023-07-02T08:11:46;100955.03;;;17.12;59.10
79703;BME280;69172;52.352;5.006;2023-07-02T08:14:12;100958.75;;;17.20;58.00
79703;BME280;69172;52.352;5.006;2023-07-02T08:16:38;100970.16;;;17.25;57.52
79703;BME280;69172;52.352;5.006;2023-07-02T08:19:03;100955.50;;;17.27;57.85
79703;BME280;69172;52.352;5.006;2023-07-02T08:21:28;100980.84;;;17.34;56.66
79703;BME280;69172;52.352;5.006;2023-07-02T08:23:54;100970.22;;;17.26;56.50
79703;BME280;69172;52.352;5.006;2023-07-02T08:26:19;100968.97;;;17.14;57.50
79703;BME280;69172;52.352;5.006;2023-07-02T08:28:45;100974.53;;;16.99;58.34
79703;BME280;69172;52.352;5.006;2023-07-02T08:31:10;100975.16;;;17.17;57.97
79703;BME280;69172;52.352;5.006;2023-07-02T08:33:36;100978.78;;;17.24;57.25
79703;BME280;69172;52.352;5.006;2023-07-02T08:36:01;100985.06;;;17.31;56.13
79703;BME280;69172;52.352;5.006;2023-07-02T08:38:27;100984.13;;;17.28;56.59
79703;BME280;69172;52.352;5.006;2023-07-02T08:40:52;100978.16;;;17.31;56.97
79703;BME280;69172;52.352;5.006;2023-07-02T08:43:18;100995.06;;;17.18;57.66
79703;BME280;69172;52.352;5.006;2023-07-02T08:45:43;100987.63;;;17.29;57.99
79703;BME280;69172;52.352;5.006;2023-07-02T08:48:13;100991.28;;;17.36;58.06
79703;BME280;69172;52.352;5.006;2023-07-02T08:50:38;100994.06;;;17.13;57.16
79703;BME280;69172;52.352;5.006;2023-07-02T08:53:03;101000.28;;;16.92;57.74
79703;BME280;69172;52.352;5.006;2023-07-02T08:55:29;100997.91;;;16.73;58.08
79703;BME280;69172;52.352;5.006;2023-07-02T08:57:55;100999.59;;;16.97;58.03
79703;BME280;69172;52.352;5.006;2023-07-02T09:00:26;101001.88;;;17.15;57.77
79703;BME280;69172;52.352;5.006;2023-07-02T09:02:51;101008.59;;;17.35;57.34
79703;BME280;69172;52.352;5.006;2023-07-02T09:05:17;100995.50;;;17.32;56.43
79703;BME280;69172;52.352;5.006;2023-07-02T09:07:49;101001.25;;;17.50;55.48
79703;BME280;69172;52.352;5.006;2023-07-02T09:10:29;100998.69;;;17.78;56.58
79703;BME280;69172;52.352;5.006;2023-07-02T09:13:05;100995.19;;;17.78;53.06
79703;BME280;69172;52.352;5.006;2023-07-02T09:15:38;101010.59;;;18.00;54.15
79703;BME280;69172;52.352;5.006;2023-07-02T09:18:21;101012.41;;;17.73;55.91
79703;BME280;69172;52.352;5.006;2023-07-02T09:20:54;101012.88;;;17.60;55.35
79703;BME280;69172;52.352;5.006;2023-07-02T09:23:20;101007.53;;;17.55;55.14
79703;BME280;69172;52.352;5.006;2023-07-02T09:25:45;101010.00;;;17.80;55.32
79703;BME280;69172;52.352;5.006;2023-07-02T09:28:18;101011.81;;;17.83;56.42
79703;BME280;69172;52.352;5.006;2023-07-02T09:30:55;101011.91;;;17.86;53.64
79703;BME280;69172;52.352;5.006;2023-07-02T09:33:23;101017.47;;;17.68;53.36
79703;BME280;69172;52.352;5.006;2023-07-02T09:35:48;101021.81;;;17.69;53.15
79703;BME280;69172;52.352;5.006;2023-07-02T09:38:15;101024.50;;;17.72;52.33
79703;BME280;69172;52.352;5.006;2023-07-02T09:40:50;101025.28;;;17.68;52.91
79703;BME280;69172;52.352;5.006;2023-07-02T09:43:16;101024.78;;;17.53;52.87
79703;BME280;69172;52.352;5.006;2023-07-02T09:45:49;101017.56;;;17.71;52.51
79703;BME280;69172;52.352;5.006;2023-07-02T09:48:16;101017.41;;;17.97;52.12
79703;BME280;69172;52.352;5.006;2023-07-02T09:50:44;101011.56;;;18.04;52.24
79703;BME280;69172;52.352;5.006;2023-07-02T09:53:11;101034.06;;;18.02;52.00
79703;BME280;69172;52.352;5.006;2023-07-02T09:55:37;101021.59;;;18.21;50.82
79703;BME280;69172;52.352;5.006;2023-07-02T09:58:03;101028.16;;;18.38;50.41
79703;BME280;69172;52.352;5.006;2023-07-02T10:00:29;101023.91;;;18.11;51.64
79703;BME280;69172;52.352;5.006;2023-07-02T10:02:55;101036.63;;;17.72;54.16
79703;BME280;69172;52.352;5.006;2023-07-02T10:05:32;101027.78;;;17.95;54.29
79703;BME280;69172;52.352;5.006;2023-07-02T10:08:16;101031.28;;;17.96;50.92
79703;BME280;69172;52.352;5.006;2023-07-02T10:10:43;101033.91;;;17.67;52.43
79703;BME280;69172;52.352;5.006;2023-07-02T10:13:08;101040.81;;;17.67;51.83
79703;BME280;69172;52.352;5.006;2023-07-02T10:15:33;101032.59;;;17.53;53.08
79703;BME280;69172;52.352;5.006;2023-07-02T10:18:03;101030.28;;;17.62;53.24
79703;BME280;69172;52.352;5.006;2023-07-02T10:20:39;101036.91;;;17.81;52.98
79703;BME280;69172;52.352;5.006;2023-07-02T10:23:06;101044.31;;;17.97;50.74
79703;BME280;69172;52.352;5.006;2023-07-02T10:25:34;101050.44;;;17.99;50.41
79703;BME280;69172;52.352;5.006;2023-07-02T10:28:22;101041.09;;;18.04;50.95
79703;BME280;69172;52.352;5.006;2023-07-02T10:30:49;101035.31;;;18.16;50.81
79703;BME280;69172;52.352;5.006;2023-07-02T10:33:16;101039.53;;;18.42;49.02
79703;BME280;69172;52.352;5.006;2023-07-02T10:35:46;101034.97;;;18.33;48.41
79703;BME280;69172;52.352;5.006;2023-07-02T10:38:19;101043.16;;;18.47;48.21
79703;BME280;69172;52.352;5.006;2023-07-02T10:40:45;101037.69;;;18.69;48.86
79703;BME280;69172;52.352;5.006;2023-07-02T10:43:11;101036.38;;;18.85;48.46
79703;BME280;69172;52.352;5.006;2023-07-02T10:45:36;101046.94;;;18.91;47.94
79703;BME280;69172;52.352;5.006;2023-07-02T10:48:10;101046.56;;;18.44;47.60
79703;BME280;69172;52.352;5.006;2023-07-02T10:50:36;101036.88;;;18.40;49.05
79703;BME280;69172;52.352;5.006;2023-07-02T10:53:02;101040.88;;;18.58;47.88
79703;BME280;69172;52.352;5.006;2023-07-02T10:55:28;101058.63;;;18.72;47.01
79703;BME280;69172;52.352;5.006;2023-07-02T10:58:05;101055.25;;;18.76;45.70
79703;BME280;69172;52.352;5.006;2023-07-02T11:00:31;101056.56;;;18.61;46.50
79703;BME280;69172;52.352;5.006;2023-07-02T11:02:56;101043.94;;;18.44;47.89
79703;BME280;69172;52.352;5.006;2023-07-02T11:05:22;101055.81;;;18.35;47.83
79703;BME280;69172;52.352;5.006;2023-07-02T11:07:47;101053.44;;;18.74;47.40
79703;BME280;69172;52.352;5.006;2023-07-02T11:10:19;101061.97;;;18.68;48.50
79703;BME280;69172;52.352;5.006;2023-07-02T11:12:44;101055.78;;;18.65;47.60
79703;BME280;69172;52.352;5.006;2023-07-02T11:15:12;101062.16;;;18.74;46.45
79703;BME280;69172;52.352;5.006;2023-07-02T11:17:38;101057.00;;;19.10;44.36
79703;BME280;69172;52.352;5.006;2023-07-02T11:20:10;101053.31;;;19.38;44.33
79703;BME280;69172;52.352;5.006;2023-07-02T11:22:37;101064.69;;;19.40;42.32
79703;BME280;69172;52.352;5.006;2023-07-02T11:27:41;101060.88;;;18.91;43.71
79703;BME280;69172;52.352;5.006;2023-07-02T11:30:07;101073.47;;;19.09;44.71
79703;BME280;69172;52.352;5.006;2023-07-02T11:32:53;101063.75;;;19.02;41.82
79703;BME280;69172;52.352;5.006;2023-07-02T11:35:19;101066.75;;;19.19;43.61
79703;BME280;69172;52.352;5.006;2023-07-02T11:37:45;101068.22;;;19.08;44.18
79703;BME280;69172;52.352;5.006;2023-07-02T11:40:12;101062.81;;;19.00;42.54
79703;BME280;69172;52.352;5.006;2023-07-02T11:42:38;101072.19;;;19.28;42.89
79703;BME280;69172;52.352;5.006;2023-07-02T11:45:04;101068.72;;;19.63;41.72
79703;BME280;69172;52.352;5.006;2023-07-02T11:47:29;101070.41;;;19.61;42.11
79703;BME280;69172;52.352;5.006;2023-07-02T11:49:55;101076.75;;;19.36;42.79
79703;BME280;69172;52.352;5.006;2023-07-02T11:52:21;101079.31;;;18.99;40.76
79703;BME280;69172;52.352;5.006;2023-07-02T11:54:47;101085.41;;;18.67;42.43
79703;BME280;69172;52.352;5.006;2023-07-02T11:57:13;101078.78;;;19.14;42.27
79703;BME280;69172;52.352;5.006;2023-07-02T11:59:38;101073.72;;;19.20;42.59
79703;BME280;69172;52.352;5.006;2023-07-02T12:02:04;101081.34;;;19.45;41.01
79703;BME280;69172;52.352;5.006;2023-07-02T12:04:29;101071.31;;;19.63;38.54
79703;BME280;69172;52.352;5.006;2023-07-02T12:06:55;101069.06;;;19.41;38.60
79703;BME280;69172;52.352;5.006;2023-07-02T12:09:20;101074.72;;;19.59;39.98
79703;BME280;69172;52.352;5.006;2023-07-02T12:11:45;101081.56;;;19.20;41.40
79703;BME280;69172;52.352;5.006;2023-07-02T12:14:11;101073.38;;;19.05;42.96
79703;BME280;69172;52.352;5.006;2023-07-02T12:16:37;101079.78;;;18.84;40.72
79703;BME280;69172;52.352;5.006;2023-07-02T12:19:02;101083.34;;;19.22;41.08
79703;BME280;69172;52.352;5.006;2023-07-02T12:21:27;101086.41;;;19.05;40.58
79703;BME280;69172;52.352;5.006;2023-07-02T12:23:53;101090.53;;;19.31;40.40
79703;BME280;69172;52.352;5.006;2023-07-02T12:26:18;101089.84;;;19.38;40.15
79703;BME280;69172;52.352;5.006;2023-07-02T12:28:44;101095.84;;;19.71;39.67
79703;BME280;69172;52.352;5.006;2023-07-02T12:31:09;101106.22;;;19.68;39.76
79703;BME280;69172;52.352;5.006;2023-07-02T12:33:35;101100.34;;;19.07;39.83
79703;BME280;69172;52.352;5.006;2023-07-02T12:36:01;101100.00;;;18.93;39.43
79703;BME280;69172;52.352;5.006;2023-07-02T12:38:26;101117.75;;;19.08;40.91
79703;BME280;69172;52.352;5.006;2023-07-02T12:40:51;101121.38;;;19.13;41.19
79703;BME280;69172;52.352;5.006;2023-07-02T12:43:17;101112.31;;;18.98;41.17
79703;BME280;69172;52.352;5.006;2023-07-02T12:45:42;101110.00;;;19.11;41.66
79703;BME280;69172;52.352;5.006;2023-07-02T12:48:08;101108.84;;;19.34;41.62
79703;BME280;69172;52.352;5.006;2023-07-02T12:50:36;101127.31;;;19.09;42.12